Mount Hood Parkdale, Oregon
Current Conditions -  °F | °C
As of 1:39 AM on Tuesday 27 Jan 2015 (Local Time) from K4S2 Reporting Station
Haze Haze  
Wind Chill: 39°   Ceiling: 100
Heat Index: 39°   Visibility: 1.2mi
Dew Point: 39°   Wind: 0mph
Humidity: 100%   Direction: NA
Pressure: 30.04"   Gusts: NA
Location:  45.52°N, 121.59°W
Report Text: K4S2 270939Z AUTO 00000KT 1 1/4SM BR OVC001 04/04 A3004 RMK AO2 SLP182 T00400040
Loading
Personal Weather Stations






























Interactive Weather Map New forecast layout! Learn more

10-Day Weather Forecast

Advertisements
Track Severe Weather on mobile